createdAt,value
2018-09-18T14:58:53.245Z,30.50
2018-09-18T15:04:04.477Z,35.00
2018-09-18T15:09:13.633Z,34.50
2018-09-18T15:14:22.543Z,34.40
2018-09-18T15:19:37.324Z,34.40
2018-09-18T17:35:39.519Z,31.70
2018-09-18T17:41:22.903Z,31.50
2018-09-18T17:46:51.198Z,31.30
2018-09-18T17:52:06.751Z,31.10
2018-09-18T17:57:22.449Z,30.90
2018-09-18T18:02:39.403Z,30.80
2018-09-18T18:07:56.364Z,30.60
2018-09-18T18:13:08.984Z,30.50
2018-09-18T18:18:16.492Z,30.40
2018-09-18T18:23:27.495Z,30.30
2018-09-18T18:28:37.331Z,30.20
2018-09-18T18:33:47.101Z,30.10
2018-09-18T18:38:55.972Z,29.90
2018-09-18T18:44:11.866Z,29.80
2018-09-18T18:49:23.961Z,29.60
2018-09-18T18:54:34.374Z,29.50
2018-09-18T18:59:43.281Z,29.40
2018-09-18T19:04:54.046Z,29.20
2018-09-18T19:10:09.832Z,29.00
2018-09-18T19:15:26.509Z,28.80
2018-09-18T19:20:34.733Z,28.60
2018-09-18T19:25:44.390Z,28.40
2018-09-18T19:30:59.990Z,28.20
2018-09-18T19:36:13.443Z,28.00
2018-09-18T19:41:26.208Z,27.80
2018-09-18T19:46:35.874Z,27.60
2018-09-18T19:51:54.057Z,27.50
2018-09-18T19:57:04.855Z,27.40
2018-09-18T20:02:16.392Z,27.30
2018-09-18T20:07:30.580Z,27.10
2018-09-18T20:12:47.230Z,27.10
2018-09-18T20:23:18.302Z,26.90
2018-09-18T20:28:34.177Z,26.80
2018-09-18T20:39:19.228Z,26.60
2018-09-18T20:44:32.099Z,26.60
2018-09-18T20:49:51.694Z,26.50
2018-09-18T20:55:07.020Z,26.50
2018-09-18T21:00:29.120Z,26.40
2018-09-18T21:05:43.521Z,26.30
2018-09-18T21:10:59.253Z,26.20
2018-09-18T21:21:40.260Z,26.00
2018-09-18T21:26:57.161Z,25.90
2018-09-18T21:37:38.622Z,25.60
2018-09-18T21:55:51.771Z,25.20
2018-09-18T22:19:10.283Z,24.70
2018-09-18T22:48:47.985Z,24.00
